createdAt,value
2024-05-09T00:03:10.988Z,101510.19
2024-05-09T00:06:17.969Z,101513.06
2024-05-09T00:09:23.961Z,101512.50
2024-05-09T00:12:30.440Z,101509.81
2024-05-09T00:15:37.091Z,101511.63
2024-05-09T00:18:42.876Z,101514.41
2024-05-09T00:21:48.832Z,101504.88
2024-05-09T00:24:54.877Z,101511.09
2024-05-09T00:28:00.736Z,101510.25
2024-05-09T00:31:06.792Z,101506.38
2024-05-09T00:34:13.225Z,101513.28
2024-05-09T00:37:19.690Z,101506.34
2024-05-09T00:40:35.597Z,101513.50
2024-05-09T00:43:46.423Z,101515.31
2024-05-09T00:46:54.982Z,101510.25
2024-05-09T00:50:04.071Z,101516.47
2024-05-09T00:53:15.491Z,101515.97
2024-05-09T00:56:22.693Z,101522.06
2024-05-09T00:59:30.390Z,101515.31
2024-05-09T01:02:36.862Z,101512.75
2024-05-09T01:05:44.429Z,101512.81
2024-05-09T01:08:50.593Z,101514.69
2024-05-09T01:11:56.842Z,101518.31
2024-05-09T01:15:02.916Z,101520.75
2024-05-09T01:18:13.235Z,101526.44
2024-05-09T01:21:19.861Z,101521.63
2024-05-09T01:24:25.949Z,101523.19
2024-05-09T01:27:32.607Z,101530.94
2024-05-09T01:30:39.080Z,101527.22
2024-05-09T01:33:45.165Z,101533.56
2024-05-09T01:36:51.292Z,101536.59
2024-05-09T01:39:57.051Z,101545.22
2024-05-09T01:43:02.421Z,101537.81
2024-05-09T01:46:15.857Z,101539.09
2024-05-09T01:49:22.331Z,101534.78
2024-05-09T01:52:28.069Z,101543.81
2024-05-09T01:55:33.718Z,101536.66
2024-05-09T01:58:39.731Z,101538.50
2024-05-09T02:01:56.458Z,101548.63
2024-05-09T02:05:04.958Z,101544.59
2024-05-09T02:08:15.868Z,101534.13
2024-05-09T02:11:22.095Z,101542.25
2024-05-09T02:14:28.476Z,101540.94
2024-05-09T02:17:34.731Z,101540.63
2024-05-09T02:20:41.971Z,101537.44
2024-05-09T02:23:51.587Z,101529.38
2024-05-09T02:26:57.612Z,101526.69
2024-05-09T02:30:04.775Z,101529.63
2024-05-09T02:33:14.706Z,101528.97
2024-05-09T02:36:22.823Z,101525.09
2024-05-09T02:39:29.047Z,101527.63
2024-05-09T02:42:35.205Z,101524.66
2024-05-09T02:45:41.357Z,101525.34
2024-05-09T02:48:47.335Z,101525.50
2024-05-09T02:51:53.454Z,101524.69
2024-05-09T02:55:00.007Z,101527.06
2024-05-09T02:58:07.832Z,101522.06
2024-05-09T03:01:13.728Z,101525.09
2024-05-09T03:04:19.942Z,101524.50
2024-05-09T03:07:26.048Z,101523.88
2024-05-09T03:10:36.291Z,101519.63
2024-05-09T03:13:43.955Z,101523.69
2024-05-09T03:16:49.865Z,101519.38
2024-05-09T03:19:55.907Z,101515.78
2024-05-09T03:23:01.920Z,101510.50
2024-05-09T03:26:16.372Z,101518.66
2024-05-09T03:29:22.870Z,101525.09
2024-05-09T03:32:29.155Z,101523.47
2024-05-09T03:35:35.076Z,101525.88
2024-05-09T03:38:41.398Z,101529.47
2024-05-09T03:41:47.136Z,101535.50
2024-05-09T03:44:53.139Z,101533.53
2024-05-09T03:47:59.257Z,101533.88
2024-05-09T03:51:05.880Z,101536.63
2024-05-09T03:54:11.786Z,101532.66
2024-05-09T03:57:17.691Z,101533.72
2024-05-09T04:00:31.381Z,101527.44
2024-05-09T04:03:44.291Z,101538.34
2024-05-09T04:06:50.384Z,101533.41
2024-05-09T04:09:56.194Z,101539.09
2024-05-09T04:13:02.168Z,101543.69
2024-05-09T04:16:11.150Z,101543.41
2024-05-09T04:19:17.067Z,101550.75
2024-05-09T04:22:23.002Z,101551.25
2024-05-09T04:25:29.125Z,101549.69
2024-05-09T04:28:35.502Z,101552.31
2024-05-09T04:31:41.502Z,101550.69
2024-05-09T04:34:47.674Z,101556.13
2024-05-09T04:37:53.531Z,101551.66
2024-05-09T04:40:59.991Z,101553.59
2024-05-09T04:44:06.040Z,101560.44
2024-05-09T04:47:11.841Z,101566.44
2024-05-09T04:50:25.464Z,101574.19
2024-05-09T04:53:39.666Z,101563.94
2024-05-09T04:56:45.855Z,101573.53
2024-05-09T04:59:51.744Z,101565.72
2024-05-09T05:02:57.929Z,101574.00
2024-05-09T05:06:04.043Z,101578.00
2024-05-09T05:09:10.098Z,101582.06
2024-05-09T05:12:34.923Z,101577.25
2024-05-09T05:15:41.622Z,101579.63
2024-05-09T05:18:47.383Z,101577.31
2024-05-09T05:21:53.545Z,101581.53
2024-05-09T05:24:59.303Z,101581.97
2024-05-09T05:28:06.056Z,101575.84
2024-05-09T05:31:11.672Z,101587.41
2024-05-09T05:34:17.656Z,101580.66
2024-05-09T05:37:23.123Z,101587.00
2024-05-09T05:40:36.047Z,101583.78
2024-05-09T05:43:44.353Z,101588.63
2024-05-09T05:46:51.110Z,101593.78
2024-05-09T05:49:56.956Z,101592.88
2024-05-09T05:53:02.562Z,101600.59
2024-05-09T05:56:08.247Z,101594.59
2024-05-09T05:59:15.457Z,101601.00
2024-05-09T06:02:21.871Z,101604.97
2024-05-09T06:05:27.921Z,101609.69
2024-05-09T06:08:34.298Z,101606.78
2024-05-09T06:11:41.461Z,101611.25
2024-05-09T06:14:48.516Z,101616.19
2024-05-09T06:17:54.640Z,101608.97
2024-05-09T06:21:01.054Z,101625.78
2024-05-09T06:24:07.125Z,101616.88
2024-05-09T06:27:12.687Z,101615.59
2024-05-09T06:30:25.465Z,101624.56
2024-05-09T06:33:37.190Z,101614.03
2024-05-09T06:36:43.681Z,101617.25
2024-05-09T06:39:49.470Z,101624.31
2024-05-09T06:42:57.876Z,101627.78
2024-05-09T06:46:04.135Z,101633.09
2024-05-09T06:49:12.084Z,101633.53
2024-05-09T06:52:19.724Z,101628.28
2024-05-09T06:55:26.066Z,101625.34
2024-05-09T06:58:32.294Z,101634.31
2024-05-09T07:01:38.548Z,101635.69
2024-05-09T07:04:45.014Z,101642.50
2024-05-09T07:07:51.298Z,101644.47
2024-05-09T07:10:58.194Z,101645.31
2024-05-09T07:14:04.322Z,101648.03
2024-05-09T07:17:10.779Z,101643.19
2024-05-09T07:20:23.537Z,101653.22
2024-05-09T07:23:39.195Z,101649.97
2024-05-09T07:26:44.953Z,101651.00
2024-05-09T07:29:51.264Z,101646.41
2024-05-09T07:32:58.099Z,101650.75
2024-05-09T07:36:04.527Z,101646.59
2024-05-09T07:39:10.811Z,101646.53
2024-05-09T07:42:16.824Z,101651.72
2024-05-09T07:45:41.700Z,101651.13
2024-05-09T07:53:22.082Z,101648.03
2024-05-09T07:55:25.193Z,101651.53
2024-05-09T07:58:31.536Z,101655.09
2024-05-09T08:01:38.015Z,101648.28
2024-05-09T08:04:44.067Z,101648.88
2024-05-09T08:07:50.804Z,101652.47
2024-05-09T08:10:56.661Z,101652.47
2024-05-09T08:14:02.573Z,101653.66
2024-05-09T08:17:08.475Z,101652.53
2024-05-09T08:20:22.528Z,101649.19
2024-05-09T08:23:33.226Z,101654.09
2024-05-09T08:26:39.012Z,101651.28
2024-05-09T08:29:44.689Z,101655.84
2024-05-09T08:32:50.919Z,101656.16
2024-05-09T08:35:56.862Z,101660.59
2024-05-09T08:39:02.672Z,101661.09
2024-05-09T08:42:08.803Z,101659.97
2024-05-09T08:45:14.775Z,101660.31
2024-05-09T08:48:23.637Z,101667.66
2024-05-09T08:51:30.114Z,101663.34
2024-05-09T08:54:36.639Z,101656.69
2024-05-09T08:57:42.898Z,101656.84
2024-05-09T09:00:49.540Z,101657.19
2024-05-09T09:03:56.179Z,101663.00
2024-05-09T09:07:03.620Z,101660.25
2024-05-09T09:10:12.944Z,101658.31
2024-05-09T09:13:21.330Z,101663.50
2024-05-09T09:16:36.831Z,101658.59
2024-05-09T09:19:43.369Z,101657.03
2024-05-09T09:22:49.267Z,101656.28
2024-05-09T09:25:59.899Z,101657.13
2024-05-09T09:29:05.822Z,101664.25
2024-05-09T09:32:12.158Z,101659.56
2024-05-09T09:35:18.053Z,101661.59
2024-05-09T09:38:24.731Z,101666.25
2024-05-09T09:41:33.422Z,101666.03
2024-05-09T09:44:42.280Z,101663.94
2024-05-09T09:47:56.576Z,101663.56
2024-05-09T09:51:02.650Z,101664.28
2024-05-09T09:57:14.940Z,101659.63
2024-05-09T10:00:30.114Z,101656.66
2024-05-09T10:03:39.138Z,101651.06
2024-05-09T10:06:59.909Z,101658.47
2024-05-09T10:10:07.082Z,101654.09
2024-05-09T15:34:56.147Z,101441.44
2024-05-09T15:38:03.802Z,101445.00
2024-05-09T15:41:10.683Z,101439.25
2024-05-09T15:44:16.638Z,101442.78
2024-05-09T15:47:23.014Z,101447.97
2024-05-09T15:50:36.779Z,101447.75
2024-05-09T15:53:46.237Z,101446.06
2024-05-09T15:56:51.764Z,101445.69
2024-05-09T15:59:58.446Z,101441.22
2024-05-09T16:03:05.014Z,101447.97
2024-05-09T16:06:11.203Z,101455.47
2024-05-09T16:09:17.855Z,101443.66
2024-05-09T16:12:25.379Z,101442.69
2024-05-09T16:15:32.136Z,101442.63
2024-05-09T16:18:40.182Z,101439.25
2024-05-09T16:21:46.209Z,101431.66
2024-05-09T16:24:52.371Z,101434.94
2024-05-09T16:27:58.457Z,101437.59
2024-05-09T16:31:04.544Z,101435.50
2024-05-09T16:34:11.130Z,101427.91
2024-05-09T16:37:16.874Z,101436.97
2024-05-09T16:40:30.341Z,101426.00
2024-05-09T16:43:43.789Z,101429.84
2024-05-09T16:46:49.882Z,101434.88
2024-05-09T16:49:56.402Z,101435.03
2024-05-09T16:53:03.593Z,101433.25
2024-05-09T16:56:10.703Z,101431.06
2024-05-09T16:59:16.999Z,101433.09
2024-05-09T17:02:23.032Z,101429.09
2024-05-09T17:05:29.912Z,101426.31
2024-05-09T17:08:38.120Z,101434.97
2024-05-09T17:11:44.321Z,101433.75
2024-05-09T17:14:50.573Z,101433.00
2024-05-09T17:17:56.961Z,101427.09
2024-05-09T17:21:02.987Z,101436.84
2024-05-09T17:24:08.925Z,101421.72
2024-05-09T17:27:15.069Z,101419.78
2024-05-09T17:30:28.798Z,101418.97
2024-05-09T17:33:43.175Z,101427.72
2024-05-09T17:36:49.543Z,101419.19
2024-05-09T17:39:55.983Z,101422.06
2024-05-09T17:43:02.510Z,101425.34
2024-05-09T17:46:09.615Z,101428.84
2024-05-09T17:49:16.067Z,101424.81
2024-05-09T17:52:22.582Z,101434.13
2024-05-09T17:55:29.216Z,101439.97
2024-05-09T17:58:36.002Z,101442.03
2024-05-09T18:01:42.449Z,101438.50
2024-05-09T18:04:49.042Z,101445.66
2024-05-09T18:07:55.572Z,101438.09
2024-05-09T18:11:03.419Z,101439.28
2024-05-09T18:14:10.024Z,101441.56
2024-05-09T18:17:16.601Z,101447.13
2024-05-09T18:20:32.598Z,101443.84
2024-05-09T18:23:47.051Z,101448.88
2024-05-09T18:26:54.037Z,101443.75
2024-05-09T18:29:59.629Z,101447.38
2024-05-09T18:33:07.842Z,101446.84
2024-05-09T18:36:16.207Z,101444.22
2024-05-09T18:39:23.331Z,101453.75
2024-05-09T18:42:31.218Z,101447.53
2024-05-09T18:45:38.674Z,101449.16
2024-05-09T18:48:45.022Z,101461.41
2024-05-09T18:51:50.845Z,101457.09
2024-05-09T18:54:56.425Z,101468.22
2024-05-09T18:58:02.581Z,101475.53
2024-05-09T19:01:14.970Z,101479.41
2024-05-09T19:04:21.471Z,101475.09
2024-05-09T19:07:27.562Z,101494.59
2024-05-09T19:10:35.115Z,101503.00
2024-05-09T19:13:42.216Z,101498.41
2024-05-09T19:16:47.889Z,101506.81
2024-05-09T19:19:54.039Z,101506.78
2024-05-09T19:23:00.222Z,101528.22
2024-05-09T19:26:07.414Z,101538.50
2024-05-09T19:29:13.703Z,101539.03
2024-05-09T19:32:20.595Z,101539.59
2024-05-09T19:35:26.828Z,101547.41
2024-05-09T19:38:33.209Z,101547.72
2024-05-09T19:41:38.566Z,101556.09
2024-05-09T19:44:43.949Z,101559.06
2024-05-09T19:47:50.127Z,101557.72
2024-05-09T19:50:56.666Z,101560.69
2024-05-09T19:54:02.928Z,101565.84
2024-05-09T19:57:09.691Z,101572.03
2024-05-09T20:00:21.957Z,101583.13
2024-05-09T20:03:37.236Z,101583.94
2024-05-09T20:06:43.603Z,101592.06
2024-05-09T20:09:49.487Z,101588.28
2024-05-09T20:12:55.512Z,101591.25
2024-05-09T20:16:02.069Z,101595.03
2024-05-09T20:19:08.385Z,101598.28
2024-05-09T20:22:14.399Z,101601.25
2024-05-09T20:25:20.589Z,101598.81
2024-05-09T20:28:27.599Z,101596.09
2024-05-09T20:31:34.197Z,101604.50
2024-05-09T20:34:40.982Z,101603.69
2024-05-09T20:37:47.107Z,101600.97
2024-05-09T20:40:53.886Z,101611.78
2024-05-09T20:44:02.418Z,101606.88
2024-05-09T20:47:08.628Z,101612.81
2024-05-09T20:50:23.799Z,101610.31
2024-05-09T20:53:39.479Z,101609.22
2024-05-09T20:56:45.695Z,101615.41
2024-05-09T20:59:52.110Z,101624.31
2024-05-09T21:02:58.812Z,101625.09
2024-05-09T21:06:05.468Z,101621.38
2024-05-09T21:09:11.241Z,101619.22
2024-05-09T21:12:19.131Z,101617.25
2024-05-09T21:15:24.824Z,101620.97
2024-05-09T21:18:30.940Z,101622.03
2024-05-09T21:21:41.318Z,101621.25
2024-05-09T21:24:46.971Z,101624.13
2024-05-09T21:27:53.327Z,101622.88
2024-05-09T21:30:59.405Z,101615.41
2024-05-09T21:34:05.606Z,101627.25
2024-05-09T21:37:12.162Z,101626.59
2024-05-09T21:40:27.107Z,101622.97
2024-05-09T21:43:40.481Z,101626.94
2024-05-09T21:46:46.637Z,101625.75
2024-05-09T21:49:53.227Z,101622.13
2024-05-09T21:52:59.317Z,101626.88
2024-05-09T21:56:05.310Z,101630.91
2024-05-09T21:59:11.386Z,101628.34
2024-05-09T22:02:17.231Z,101627.81
2024-05-09T22:05:23.240Z,101635.63
2024-05-09T22:08:29.353Z,101636.09
2024-05-09T22:11:35.345Z,101637.75
2024-05-09T22:14:41.569Z,101636.84
2024-05-09T22:17:48.248Z,101640.66
2024-05-09T22:20:55.525Z,101643.09
2024-05-09T22:24:01.293Z,101641.19
2024-05-09T22:27:09.053Z,101645.16
2024-05-09T22:30:21.260Z,101643.81
2024-05-09T22:33:34.025Z,101645.78
2024-05-09T22:36:39.724Z,101642.56
2024-05-09T22:39:46.085Z,101644.19
2024-05-09T22:42:51.897Z,101651.97
2024-05-09T22:45:58.012Z,101645.78
2024-05-09T22:49:04.271Z,101645.28
2024-05-09T22:52:10.216Z,101640.16
2024-05-09T22:55:16.607Z,101647.19
2024-05-09T22:58:23.894Z,101647.97
2024-05-09T23:01:30.507Z,101652.53
2024-05-09T23:04:39.039Z,101651.72
2024-05-09T23:07:45.055Z,101650.59
2024-05-09T23:10:51.269Z,101645.72
2024-05-09T23:13:57.452Z,101648.72
2024-05-09T23:17:03.205Z,101655.63
2024-05-09T23:20:11.595Z,101649.78
2024-05-09T23:23:18.542Z,101653.91
2024-05-09T23:26:24.230Z,101652.72
2024-05-09T23:29:29.776Z,101651.22
2024-05-09T23:32:36.550Z,101649.06
2024-05-09T23:35:44.557Z,101647.75
2024-05-09T23:38:50.664Z,101644.50
2024-05-09T23:41:56.748Z,101644.78
2024-05-09T23:45:02.748Z,101641.09
2024-05-09T23:48:09.610Z,101647.31
2024-05-09T23:51:15.769Z,101645.16
2024-05-09T23:54:21.643Z,101652.16
2024-05-09T23:57:27.302Z,101649.41
